Terminal Aerodrome Forecast
Issued by NWS Grand Forks, ND

Home | Current Version | Previous Version | Graphics & Text | Print | Product List | Glossary On
Versions: 1 2 3 4 5 6 7 8 9 10 11 12 13
000
FTUS43 KFGF 191700
TAFFAR
TAF
KFAR 191720Z 1918/2018 16012KT 3SM BR OVC006
     FM192000 16009KT 5SM BR OVC008
     FM200100 19007KT 4SM BR OVC004=

USA.gov is the U.S. government's official web portal to all federal, state and local government web resources and services.